createdAt,value
2023-08-07T00:03:32.322Z,98343.09
2023-08-07T00:09:34.317Z,98339.78
2023-08-07T00:15:39.750Z,98345.69
2023-08-07T00:21:43.049Z,98344.34
2023-08-07T00:27:45.050Z,98361.72
2023-08-07T00:33:47.472Z,98358.50
2023-08-07T00:39:49.418Z,98357.41
2023-08-07T00:45:51.387Z,98356.25
2023-08-07T00:51:54.110Z,98362.97
2023-08-07T00:57:56.131Z,98359.88
2023-08-07T01:03:58.099Z,98356.03
2023-08-07T01:10:04.189Z,98374.03
2023-08-07T01:16:15.226Z,98382.53
2023-08-07T01:22:19.004Z,98378.38
2023-08-07T01:28:29.302Z,98373.97
2023-08-07T01:34:32.560Z,98365.66
2023-08-07T01:40:35.820Z,98381.84
2023-08-07T01:46:37.861Z,98381.19
2023-08-07T01:52:39.826Z,98374.56
2023-08-07T01:58:41.769Z,98376.81
2023-08-07T02:04:44.359Z,98383.22
2023-08-07T02:10:46.376Z,98390.56
2023-08-07T02:16:48.309Z,98381.16
2023-08-07T02:22:50.239Z,98382.66
2023-08-07T02:28:52.230Z,98388.88
2023-08-07T02:34:54.283Z,98387.13
2023-08-07T02:40:56.232Z,98390.81
2023-08-07T02:46:58.504Z,98399.06
2023-08-07T02:53:01.717Z,98396.78
2023-08-07T02:59:03.753Z,98392.94
2023-08-07T03:05:05.988Z,98399.56
2023-08-07T03:11:07.990Z,98398.03
2023-08-07T03:17:09.950Z,98407.41
2023-08-07T03:23:12.147Z,98404.63
2023-08-07T03:29:14.198Z,98404.22
2023-08-07T03:35:16.208Z,98401.84
2023-08-07T03:41:18.229Z,98412.97
2023-08-07T03:47:20.243Z,98411.00
2023-08-07T03:53:22.240Z,98416.06
2023-08-07T03:59:24.583Z,98414.69
2023-08-07T04:05:26.563Z,98417.28
2023-08-07T04:11:28.503Z,98420.41
2023-08-07T04:17:30.465Z,98417.47
2023-08-07T04:23:32.735Z,98425.72
2023-08-07T04:29:34.866Z,98431.09
2023-08-07T04:35:37.412Z,98426.84
2023-08-07T04:41:39.321Z,98433.97
2023-08-07T04:47:42.248Z,98448.91
2023-08-07T04:53:44.332Z,98447.22
2023-08-07T04:59:46.300Z,98455.00
2023-08-07T05:05:48.281Z,98457.44
2023-08-07T05:11:50.224Z,98458.94
2023-08-07T05:17:56.018Z,98465.06
2023-08-07T05:23:57.943Z,98461.63
2023-08-07T05:30:00.904Z,98463.34
2023-08-07T05:36:02.834Z,98464.41
2023-08-07T05:42:05.561Z,98474.38
2023-08-07T05:48:08.361Z,98482.53
2023-08-07T05:54:10.506Z,98490.66
2023-08-07T06:00:18.591Z,98487.94
2023-08-07T06:06:20.512Z,98492.94
2023-08-07T06:12:22.420Z,98491.31
2023-08-07T06:18:24.410Z,98496.50
2023-08-07T06:24:26.876Z,98481.31
2023-08-07T06:30:28.936Z,98498.47
2023-08-07T06:36:30.849Z,98505.28
2023-08-07T06:42:32.762Z,98497.16
2023-08-07T06:48:34.731Z,98502.53
2023-08-07T06:54:36.685Z,98505.22
2023-08-07T07:00:38.806Z,98512.41
2023-08-07T07:06:40.854Z,98507.19
2023-08-07T07:12:42.943Z,98506.81
2023-08-07T07:18:44.940Z,98514.47
2023-08-07T07:24:46.853Z,98515.53
2023-08-07T07:30:48.916Z,98534.03
2023-08-07T07:36:52.065Z,98548.94
2023-08-07T07:42:54.028Z,98560.09
2023-08-07T07:49:09.645Z,98563.09
2023-08-07T07:55:13.268Z,98569.13
2023-08-07T08:01:15.295Z,98572.50
2023-08-07T08:07:17.553Z,98587.84
2023-08-07T08:13:20.289Z,98594.56
2023-08-07T08:19:22.426Z,98600.66
2023-08-07T08:25:24.410Z,98613.28
2023-08-07T08:31:26.435Z,98608.91
2023-08-07T08:37:30.238Z,98626.13
2023-08-07T08:43:37.072Z,98625.13
2023-08-07T08:49:49.509Z,98623.22
2023-08-07T08:55:52.398Z,98625.38
2023-08-07T09:01:54.459Z,98626.31
2023-08-07T09:07:57.703Z,98632.41
2023-08-07T09:14:02.531Z,98645.94
2023-08-07T09:20:05.780Z,98645.97
2023-08-07T09:26:09.410Z,98652.56
2023-08-07T09:32:15.138Z,98659.53
2023-08-07T09:38:17.172Z,98656.59
2023-08-07T09:44:19.146Z,98663.22
2023-08-07T09:50:23.290Z,98667.16
2023-08-07T09:56:25.323Z,98661.81
2023-08-07T10:02:27.400Z,98675.03
2023-08-07T10:08:29.763Z,98679.16
2023-08-07T10:14:31.958Z,98689.16
2023-08-07T10:20:34.147Z,98688.59
2023-08-07T10:26:42.532Z,98706.47
2023-08-07T10:32:45.538Z,98720.91
2023-08-07T10:38:52.582Z,98728.66
2023-08-07T10:44:54.566Z,98715.56
2023-08-07T10:50:57.990Z,98710.06
2023-08-07T10:57:02.491Z,98710.00
2023-08-07T11:03:04.729Z,98724.97
2023-08-07T11:09:09.691Z,98745.03
2023-08-07T11:15:14.802Z,98735.91
2023-08-07T11:21:16.826Z,98737.16
2023-08-07T11:27:18.905Z,98739.22
2023-08-07T11:33:22.121Z,98729.13
2023-08-07T11:39:25.553Z,98742.75
2023-08-07T11:45:27.961Z,98744.59
2023-08-07T11:51:30.429Z,98738.19
2023-08-07T11:57:32.417Z,98725.38
2023-08-07T12:03:40.906Z,98744.66
2023-08-07T12:09:42.936Z,98749.38
2023-08-07T12:15:44.914Z,98767.69
2023-08-07T12:21:46.911Z,98786.47
2023-08-07T12:27:49.757Z,98789.16
2023-08-07T12:33:52.751Z,98786.88
2023-08-07T12:52:23.386Z,98798.06
2023-08-07T12:58:27.050Z,98841.41
2023-08-07T13:04:29.042Z,98815.25
2023-08-07T13:10:32.476Z,98824.44
2023-08-07T13:16:34.697Z,98835.91
2023-08-07T13:22:43.771Z,98831.31
2023-08-07T13:28:45.794Z,98835.25
2023-08-07T13:34:47.941Z,98850.06
2023-08-07T13:40:50.400Z,98857.84
2023-08-07T13:46:52.775Z,98858.47
2023-08-07T13:53:04.350Z,98859.81
2023-08-07T13:59:15.325Z,98855.84
2023-08-07T14:05:17.279Z,98890.25
2023-08-07T14:11:20.461Z,98872.44
2023-08-07T14:17:22.400Z,98881.72
2023-08-07T14:23:24.456Z,98889.16
2023-08-07T14:29:26.452Z,98903.03
2023-08-07T14:35:28.509Z,98917.50
2023-08-07T14:41:30.521Z,98914.25
2023-08-07T14:47:32.592Z,98916.84
2023-08-07T14:53:35.355Z,98928.06
2023-08-07T14:59:37.343Z,98937.81
2023-08-07T15:05:39.300Z,98930.47
2023-08-07T15:11:42.045Z,98934.34
2023-08-07T15:17:44.216Z,98943.09
2023-08-07T15:23:46.169Z,98951.78
2023-08-07T15:29:48.152Z,98940.84
2023-08-07T15:35:52.698Z,98963.34
2023-08-07T15:41:54.746Z,98952.59
2023-08-07T15:47:56.855Z,98961.66
2023-08-07T15:53:59.721Z,98959.88
2023-08-07T16:00:01.928Z,98964.78
2023-08-07T16:06:04.002Z,98972.84
2023-08-07T16:12:06.438Z,98973.44
2023-08-07T16:18:08.458Z,98975.97
2023-08-07T16:24:10.489Z,98959.78
2023-08-07T16:30:12.965Z,98959.84
2023-08-07T16:36:14.914Z,98969.75
2023-08-07T16:42:17.157Z,98978.81
2023-08-07T16:48:19.084Z,98979.75
2023-08-07T16:54:21.123Z,98990.31
2023-08-07T17:00:23.580Z,99004.88
2023-08-07T17:06:25.540Z,99024.66
2023-08-07T17:12:27.497Z,99032.94
2023-08-07T17:18:29.439Z,99033.19
2023-08-07T17:24:31.408Z,99057.06
2023-08-07T17:30:33.652Z,99047.63
2023-08-07T17:36:35.612Z,99054.75
2023-08-07T17:42:37.573Z,99058.06
2023-08-07T17:48:40.174Z,99035.09
2023-08-07T17:54:42.253Z,99024.00
2023-08-07T18:00:44.358Z,99039.69
2023-08-07T18:06:46.514Z,99049.03
2023-08-07T18:12:48.481Z,99058.31
2023-08-07T18:18:50.525Z,99049.09
2023-08-07T18:24:52.570Z,99062.97
2023-08-07T18:30:54.547Z,99048.28
2023-08-07T18:36:56.816Z,99041.59
2023-08-07T18:42:59.087Z,99047.00
2023-08-07T18:49:01.229Z,99046.84
2023-08-07T18:55:03.327Z,99038.50
2023-08-07T19:01:06.573Z,99041.53
2023-08-07T19:07:12.696Z,99046.25
2023-08-07T19:13:15.122Z,99053.81
2023-08-07T19:19:17.111Z,99046.31
2023-08-07T19:25:19.099Z,99057.34
2023-08-07T19:31:21.142Z,99058.03
2023-08-07T19:37:23.446Z,99059.22
2023-08-07T19:43:25.476Z,99068.47
2023-08-07T19:49:27.436Z,99071.78
2023-08-07T19:55:30.592Z,99076.50
2023-08-07T20:01:32.918Z,99067.09
2023-08-07T20:07:34.964Z,99065.31
2023-08-07T20:13:36.955Z,99071.56
2023-08-07T20:19:38.948Z,99068.50
2023-08-07T20:25:41.016Z,99060.34
2023-08-07T20:31:43.060Z,99077.81
2023-08-07T20:37:45.051Z,99075.41
2023-08-07T20:43:48.851Z,99072.28
2023-08-07T20:49:51.026Z,99069.22
2023-08-07T20:55:53.162Z,99065.50
2023-08-07T21:01:55.464Z,99078.88
2023-08-07T21:07:57.464Z,99077.13
2023-08-07T21:14:02.475Z,99080.59
2023-08-07T21:20:04.988Z,99069.72
2023-08-07T21:26:07.041Z,99067.78
2023-08-07T21:32:09.410Z,99070.25
2023-08-07T21:38:11.384Z,99072.38
2023-08-07T21:44:13.364Z,99078.28
2023-08-07T21:50:15.304Z,99071.16
2023-08-07T21:56:17.764Z,99064.69
2023-08-07T22:02:19.800Z,99063.09
2023-08-07T22:08:21.869Z,99066.16
2023-08-07T22:14:23.831Z,99065.03
2023-08-07T22:20:25.973Z,99072.66
2023-08-07T22:26:28.075Z,99072.81
2023-08-07T22:32:30.373Z,99064.22
2023-08-07T22:38:32.528Z,99075.16
2023-08-07T22:44:34.821Z,99072.13
2023-08-07T22:50:36.791Z,99068.31
2023-08-07T22:56:38.827Z,99060.03
2023-08-07T23:02:41.261Z,99062.34
2023-08-07T23:08:43.351Z,99057.47
2023-08-07T23:14:45.340Z,99054.00
2023-08-07T23:20:47.293Z,99051.81
2023-08-07T23:26:49.272Z,99039.66
2023-08-07T23:32:51.314Z,99036.78
2023-08-07T23:38:53.377Z,99039.03
2023-08-07T23:44:55.464Z,99029.09
2023-08-07T23:50:57.448Z,99031.72
2023-08-07T23:57:00.092Z,99029.22
